sensor_id;sensor_type;location;lat;lon;timestamp;P1;durP1;ratioP1;P2;durP2;ratioP2
19798;SDS011;10059;59.850;10.454;2023-05-21T00:00:47;11.17;;;4.00;;
19798;SDS011;10059;59.850;10.454;2023-05-21T00:03:15;7.60;;;3.70;;
19798;SDS011;10059;59.850;10.454;2023-05-21T00:05:42;7.80;;;4.13;;
19798;SDS011;10059;59.850;10.454;2023-05-21T00:08:11;6.63;;;3.90;;
19798;SDS011;10059;59.850;10.454;2023-05-21T00:10:38;8.07;;;4.33;;
19798;SDS011;10059;59.850;10.454;2023-05-21T00:13:06;7.57;;;4.00;;
19798;SDS011;10059;59.850;10.454;2023-05-21T00:15:34;9.17;;;4.60;;
19798;SDS011;10059;59.850;10.454;2023-05-21T00:18:01;7.90;;;4.23;;
19798;SDS011;10059;59.850;10.454;2023-05-21T00:20:28;7.60;;;3.90;;
19798;SDS011;10059;59.850;10.454;2023-05-21T00:22:56;7.57;;;4.23;;
19798;SDS011;10059;59.850;10.454;2023-05-21T00:25:23;9.77;;;4.50;;
19798;SDS011;10059;59.850;10.454;2023-05-21T00:27:49;11.73;;;4.10;;
19798;SDS011;10059;59.850;10.454;2023-05-21T00:30:18;8.07;;;4.33;;
19798;SDS011;10059;59.850;10.454;2023-05-21T00:32:44;9.13;;;4.20;;
19798;SDS011;10059;59.850;10.454;2023-05-21T00:35:11;7.10;;;4.10;;
19798;SDS011;10059;59.850;10.454;2023-05-21T00:37:38;9.93;;;4.53;;
19798;SDS011;10059;59.850;10.454;2023-05-21T00:40:05;8.00;;;4.40;;
19798;SDS011;10059;59.850;10.454;2023-05-21T00:42:33;10.60;;;4.70;;
19798;SDS011;10059;59.850;10.454;2023-05-21T00:45:04;8.10;;;4.17;;
19798;SDS011;10059;59.850;10.454;2023-05-21T00:47:33;12.40;;;5.00;;
19798;SDS011;10059;59.850;10.454;2023-05-21T00:50:03;9.07;;;4.50;;
19798;SDS011;10059;59.850;10.454;2023-05-21T00:52:31;9.33;;;4.40;;
19798;SDS011;10059;59.850;10.454;2023-05-21T00:55:06;10.60;;;4.33;;
19798;SDS011;10059;59.850;10.454;2023-05-21T00:57:34;8.17;;;4.53;;
19798;SDS011;10059;59.850;10.454;2023-05-21T01:00:02;9.27;;;4.40;;
19798;SDS011;10059;59.850;10.454;2023-05-21T01:02:31;7.47;;;4.23;;
19798;SDS011;10059;59.850;10.454;2023-05-21T01:05:00;9.53;;;4.57;;
19798;SDS011;10059;59.850;10.454;2023-05-21T01:07:28;8.97;;;4.80;;
19798;SDS011;10059;59.850;10.454;2023-05-21T01:09:59;10.50;;;4.33;;
19798;SDS011;10059;59.850;10.454;2023-05-21T01:12:26;9.23;;;4.80;;
19798;SDS011;10059;59.850;10.454;2023-05-21T01:14:55;8.20;;;4.77;;
19798;SDS011;10059;59.850;10.454;2023-05-21T01:17:24;6.80;;;4.60;;
19798;SDS011;10059;59.850;10.454;2023-05-21T01:19:52;7.83;;;4.63;;
19798;SDS011;10059;59.850;10.454;2023-05-21T01:22:21;11.53;;;4.17;;
19798;SDS011;10059;59.850;10.454;2023-05-21T01:24:52;9.43;;;4.70;;
19798;SDS011;10059;59.850;10.454;2023-05-21T01:27:20;7.27;;;4.43;;
19798;SDS011;10059;59.850;10.454;2023-05-21T01:29:47;8.37;;;5.10;;
19798;SDS011;10059;59.850;10.454;2023-05-21T01:32:15;8.93;;;5.23;;
19798;SDS011;10059;59.850;10.454;2023-05-21T01:34:49;8.73;;;5.10;;
19798;SDS011;10059;59.850;10.454;2023-05-21T01:37:23;9.73;;;4.60;;
19798;SDS011;10059;59.850;10.454;2023-05-21T01:39:58;7.27;;;4.37;;
19798;SDS011;10059;59.850;10.454;2023-05-21T01:42:28;7.43;;;4.73;;
19798;SDS011;10059;59.850;10.454;2023-05-21T01:44:57;8.43;;;4.30;;
19798;SDS011;10059;59.850;10.454;2023-05-21T01:47:26;6.60;;;4.50;;
19798;SDS011;10059;59.850;10.454;2023-05-21T01:49:57;8.63;;;4.20;;
19798;SDS011;10059;59.850;10.454;2023-05-21T01:52:24;7.53;;;3.97;;
19798;SDS011;10059;59.850;10.454;2023-05-21T01:54:51;6.63;;;4.40;;
19798;SDS011;10059;59.850;10.454;2023-05-21T01:57:19;8.17;;;4.60;;
19798;SDS011;10059;59.850;10.454;2023-05-21T01:59:46;7.53;;;4.63;;
19798;SDS011;10059;59.850;10.454;2023-05-21T02:02:13;7.37;;;4.33;;
19798;SDS011;10059;59.850;10.454;2023-05-21T02:04:40;9.70;;;4.60;;
19798;SDS011;10059;59.850;10.454;2023-05-21T02:07:08;7.47;;;4.60;;
19798;SDS011;10059;59.850;10.454;2023-05-21T02:09:35;7.27;;;4.57;;
19798;SDS011;10059;59.850;10.454;2023-05-21T02:12:02;12.10;;;4.10;;
19798;SDS011;10059;59.850;10.454;2023-05-21T02:14:30;7.67;;;4.33;;
19798;SDS011;10059;59.850;10.454;2023-05-21T02:16:58;6.63;;;4.50;;
19798;SDS011;10059;59.850;10.454;2023-05-21T02:19:26;8.87;;;4.97;;
19798;SDS011;10059;59.850;10.454;2023-05-21T02:21:52;9.03;;;4.57;;
19798;SDS011;10059;59.850;10.454;2023-05-21T02:24:19;7.27;;;5.00;;
19798;SDS011;10059;59.850;10.454;2023-05-21T02:26:48;10.57;;;5.27;;
19798;SDS011;10059;59.850;10.454;2023-05-21T02:29:16;10.40;;;5.33;;
19798;SDS011;10059;59.850;10.454;2023-05-21T02:31:44;8.00;;;4.80;;
19798;SDS011;10059;59.850;10.454;2023-05-21T02:34:11;9.13;;;4.60;;
19798;SDS011;10059;59.850;10.454;2023-05-21T02:36:38;9.47;;;4.60;;
19798;SDS011;10059;59.850;10.454;2023-05-21T02:39:05;7.80;;;4.40;;
19798;SDS011;10059;59.850;10.454;2023-05-21T02:41:32;8.17;;;4.60;;
19798;SDS011;10059;59.850;10.454;2023-05-21T02:43:59;7.67;;;4.23;;
19798;SDS011;10059;59.850;10.454;2023-05-21T02:46:26;7.60;;;4.43;;
19798;SDS011;10059;59.850;10.454;2023-05-21T02:48:54;9.43;;;4.80;;
19798;SDS011;10059;59.850;10.454;2023-05-21T02:51:21;8.77;;;5.03;;
19798;SDS011;10059;59.850;10.454;2023-05-21T02:53:47;8.93;;;4.30;;
19798;SDS011;10059;59.850;10.454;2023-05-21T02:56:14;6.33;;;4.50;;
19798;SDS011;10059;59.850;10.454;2023-05-21T02:58:41;9.13;;;5.23;;
19798;SDS011;10059;59.850;10.454;2023-05-21T03:01:08;8.10;;;4.63;;
19798;SDS011;10059;59.850;10.454;2023-05-21T03:03:35;7.23;;;4.40;;
19798;SDS011;10059;59.850;10.454;2023-05-21T03:06:03;7.67;;;4.50;;
19798;SDS011;10059;59.850;10.454;2023-05-21T03:08:30;12.53;;;5.00;;
19798;SDS011;10059;59.850;10.454;2023-05-21T03:10:57;9.90;;;4.63;;
19798;SDS011;10059;59.850;10.454;2023-05-21T03:13:24;8.50;;;5.00;;
19798;SDS011;10059;59.850;10.454;2023-05-21T03:15:50;7.37;;;4.80;;
19798;SDS011;10059;59.850;10.454;2023-05-21T03:18:20;8.50;;;4.97;;
19798;SDS011;10059;59.850;10.454;2023-05-21T03:20:47;8.10;;;5.20;;
19798;SDS011;10059;59.850;10.454;2023-05-21T03:23:15;6.77;;;4.30;;
19798;SDS011;10059;59.850;10.454;2023-05-21T03:25:42;8.40;;;4.77;;
19798;SDS011;10059;59.850;10.454;2023-05-21T03:28:09;9.20;;;4.57;;
19798;SDS011;10059;59.850;10.454;2023-05-21T03:30:36;7.60;;;4.77;;
19798;SDS011;10059;59.850;10.454;2023-05-21T03:33:03;8.97;;;4.77;;
19798;SDS011;10059;59.850;10.454;2023-05-21T03:35:30;10.60;;;4.80;;
19798;SDS011;10059;59.850;10.454;2023-05-21T03:37:57;8.00;;;4.80;;
19798;SDS011;10059;59.850;10.454;2023-05-21T03:40:25;8.40;;;4.30;;
19798;SDS011;10059;59.850;10.454;2023-05-21T03:42:52;8.80;;;4.60;;
19798;SDS011;10059;59.850;10.454;2023-05-21T03:45:19;6.33;;;4.37;;
19798;SDS011;10059;59.850;10.454;2023-05-21T03:47:46;7.67;;;4.93;;
19798;SDS011;10059;59.850;10.454;2023-05-21T03:50:13;9.07;;;4.97;;
19798;SDS011;10059;59.850;10.454;2023-05-21T03:52:40;8.20;;;4.30;;
19798;SDS011;10059;59.850;10.454;2023-05-21T03:55:08;12.73;;;4.70;;
19798;SDS011;10059;59.850;10.454;2023-05-21T03:57:36;6.73;;;4.30;;
19798;SDS011;10059;59.850;10.454;2023-05-21T04:00:03;7.03;;;4.00;;
19798;SDS011;10059;59.850;10.454;2023-05-21T04:02:33;8.83;;;4.57;;
19798;SDS011;10059;59.850;10.454;2023-05-21T04:05:00;6.53;;;4.20;;
19798;SDS011;10059;59.850;10.454;2023-05-21T04:07:27;6.43;;;4.10;;
19798;SDS011;10059;59.850;10.454;2023-05-21T04:09:55;9.37;;;4.80;;
19798;SDS011;10059;59.850;10.454;2023-05-21T04:12:21;7.00;;;4.23;;
19798;SDS011;10059;59.850;10.454;2023-05-21T04:14:50;7.73;;;4.10;;
19798;SDS011;10059;59.850;10.454;2023-05-21T04:17:16;7.00;;;4.47;;
19798;SDS011;10059;59.850;10.454;2023-05-21T04:19:44;7.27;;;4.10;;
19798;SDS011;10059;59.850;10.454;2023-05-21T04:22:11;12.93;;;4.10;;
19798;SDS011;10059;59.850;10.454;2023-05-21T04:24:38;7.90;;;4.00;;
19798;SDS011;10059;59.850;10.454;2023-05-21T04:27:05;7.63;;;3.90;;
19798;SDS011;10059;59.850;10.454;2023-05-21T04:29:33;7.93;;;3.83;;
19798;SDS011;10059;59.850;10.454;2023-05-21T04:32:03;8.57;;;3.90;;
19798;SDS011;10059;59.850;10.454;2023-05-21T04:34:30;8.10;;;3.77;;
19798;SDS011;10059;59.850;10.454;2023-05-21T04:36:57;9.57;;;3.77;;
19798;SDS011;10059;59.850;10.454;2023-05-21T04:39:24;6.70;;;3.97;;
19798;SDS011;10059;59.850;10.454;2023-05-21T04:41:52;5.53;;;3.57;;
19798;SDS011;10059;59.850;10.454;2023-05-21T04:44:20;6.90;;;3.93;;
19798;SDS011;10059;59.850;10.454;2023-05-21T04:46:47;6.70;;;3.70;;
19798;SDS011;10059;59.850;10.454;2023-05-21T04:49:16;8.13;;;4.13;;
19798;SDS011;10059;59.850;10.454;2023-05-21T04:51:42;7.73;;;3.60;;
19798;SDS011;10059;59.850;10.454;2023-05-21T04:54:10;7.00;;;3.87;;
19798;SDS011;10059;59.850;10.454;2023-05-21T04:56:37;5.73;;;3.80;;
19798;SDS011;10059;59.850;10.454;2023-05-21T04:59:04;7.97;;;4.00;;
19798;SDS011;10059;59.850;10.454;2023-05-21T05:01:31;8.30;;;4.00;;
19798;SDS011;10059;59.850;10.454;2023-05-21T05:03:59;5.93;;;3.70;;
19798;SDS011;10059;59.850;10.454;2023-05-21T05:06:27;8.50;;;4.00;;
19798;SDS011;10059;59.850;10.454;2023-05-21T05:08:55;10.17;;;3.57;;
19798;SDS011;10059;59.850;10.454;2023-05-21T05:11:22;5.83;;;3.50;;
19798;SDS011;10059;59.850;10.454;2023-05-21T05:13:48;7.40;;;3.30;;
19798;SDS011;10059;59.850;10.454;2023-05-21T05:16:15;7.27;;;3.90;;
19798;SDS011;10059;59.850;10.454;2023-05-21T05:18:48;7.50;;;3.60;;
19798;SDS011;10059;59.850;10.454;2023-05-21T05:21:15;10.07;;;3.90;;
19798;SDS011;10059;59.850;10.454;2023-05-21T05:23:44;8.97;;;4.10;;
19798;SDS011;10059;59.850;10.454;2023-05-21T05:26:10;7.90;;;3.93;;
19798;SDS011;10059;59.850;10.454;2023-05-21T05:28:37;7.07;;;4.00;;
19798;SDS011;10059;59.850;10.454;2023-05-21T05:31:04;6.03;;;3.90;;
19798;SDS011;10059;59.850;10.454;2023-05-21T05:33:31;8.30;;;4.10;;
19798;SDS011;10059;59.850;10.454;2023-05-21T05:35:58;6.67;;;3.87;;
19798;SDS011;10059;59.850;10.454;2023-05-21T05:38:25;8.47;;;3.80;;
19798;SDS011;10059;59.850;10.454;2023-05-21T05:40:53;7.97;;;3.87;;
19798;SDS011;10059;59.850;10.454;2023-05-21T05:43:20;7.90;;;4.13;;
19798;SDS011;10059;59.850;10.454;2023-05-21T05:45:47;7.23;;;3.70;;
19798;SDS011;10059;59.850;10.454;2023-05-21T05:48:14;6.07;;;3.83;;
19798;SDS011;10059;59.850;10.454;2023-05-21T05:50:40;6.73;;;3.80;;
19798;SDS011;10059;59.850;10.454;2023-05-21T05:53:07;5.57;;;3.77;;
19798;SDS011;10059;59.850;10.454;2023-05-21T05:55:37;5.90;;;3.70;;
19798;SDS011;10059;59.850;10.454;2023-05-21T05:58:05;7.77;;;3.77;;
19798;SDS011;10059;59.850;10.454;2023-05-21T06:00:32;5.53;;;3.73;;
19798;SDS011;10059;59.850;10.454;2023-05-21T06:02:59;5.57;;;3.80;;
19798;SDS011;10059;59.850;10.454;2023-05-21T06:05:25;11.30;;;4.13;;
19798;SDS011;10059;59.850;10.454;2023-05-21T06:07:52;5.77;;;3.53;;
19798;SDS011;10059;59.850;10.454;2023-05-21T06:10:19;6.27;;;3.50;;
19798;SDS011;10059;59.850;10.454;2023-05-21T06:12:46;8.10;;;3.97;;
19798;SDS011;10059;59.850;10.454;2023-05-21T06:15:14;7.30;;;3.83;;
19798;SDS011;10059;59.850;10.454;2023-05-21T06:17:43;6.27;;;3.50;;
19798;SDS011;10059;59.850;10.454;2023-05-21T06:20:10;6.53;;;3.60;;
19798;SDS011;10059;59.850;10.454;2023-05-21T06:22:37;6.07;;;3.67;;
19798;SDS011;10059;59.850;10.454;2023-05-21T06:25:04;7.07;;;3.40;;
19798;SDS011;10059;59.850;10.454;2023-05-21T06:27:32;6.70;;;3.80;;
19798;SDS011;10059;59.850;10.454;2023-05-21T06:29:59;5.63;;;3.63;;
19798;SDS011;10059;59.850;10.454;2023-05-21T06:32:27;6.00;;;3.50;;
19798;SDS011;10059;59.850;10.454;2023-05-21T06:34:54;11.80;;;3.83;;
19798;SDS011;10059;59.850;10.454;2023-05-21T06:37:20;5.17;;;3.70;;
19798;SDS011;10059;59.850;10.454;2023-05-21T06:39:47;5.67;;;3.60;;
19798;SDS011;10059;59.850;10.454;2023-05-21T06:42:14;6.27;;;3.40;;
19798;SDS011;10059;59.850;10.454;2023-05-21T06:44:41;5.57;;;3.50;;
19798;SDS011;10059;59.850;10.454;2023-05-21T06:47:09;5.80;;;3.70;;
19798;SDS011;10059;59.850;10.454;2023-05-21T06:49:37;4.73;;;3.53;;
19798;SDS011;10059;59.850;10.454;2023-05-21T06:52:04;6.00;;;3.67;;
19798;SDS011;10059;59.850;10.454;2023-05-21T06:54:31;7.00;;;3.40;;
19798;SDS011;10059;59.850;10.454;2023-05-21T06:56:58;4.97;;;3.30;;
19798;SDS011;10059;59.850;10.454;2023-05-21T06:59:25;8.17;;;3.50;;
19798;SDS011;10059;59.850;10.454;2023-05-21T07:01:52;8.33;;;3.70;;
19798;SDS011;10059;59.850;10.454;2023-05-21T07:04:19;7.30;;;3.73;;
19798;SDS011;10059;59.850;10.454;2023-05-21T07:06:47;7.17;;;3.30;;
19798;SDS011;10059;59.850;10.454;2023-05-21T07:09:14;8.00;;;3.57;;
19798;SDS011;10059;59.850;10.454;2023-05-21T07:11:42;4.67;;;3.40;;
19798;SDS011;10059;59.850;10.454;2023-05-21T07:14:09;8.07;;;3.60;;
19798;SDS011;10059;59.850;10.454;2023-05-21T07:16:36;7.43;;;3.57;;
19798;SDS011;10059;59.850;10.454;2023-05-21T07:19:03;6.67;;;3.67;;
19798;SDS011;10059;59.850;10.454;2023-05-21T07:21:30;6.13;;;3.30;;
19798;SDS011;10059;59.850;10.454;2023-05-21T07:23:58;7.03;;;3.43;;
19798;SDS011;10059;59.850;10.454;2023-05-21T07:26:25;7.90;;;4.03;;
19798;SDS011;10059;59.850;10.454;2023-05-21T07:28:52;6.67;;;3.93;;
19798;SDS011;10059;59.850;10.454;2023-05-21T07:31:19;9.87;;;3.50;;
19798;SDS011;10059;59.850;10.454;2023-05-21T07:33:45;8.20;;;3.73;;
19798;SDS011;10059;59.850;10.454;2023-05-21T07:36:12;10.27;;;3.60;;
19798;SDS011;10059;59.850;10.454;2023-05-21T07:38:39;6.77;;;3.23;;
19798;SDS011;10059;59.850;10.454;2023-05-21T07:41:07;7.23;;;3.47;;
19798;SDS011;10059;59.850;10.454;2023-05-21T07:43:34;6.13;;;3.60;;
19798;SDS011;10059;59.850;10.454;2023-05-21T07:46:01;6.30;;;3.53;;
19798;SDS011;10059;59.850;10.454;2023-05-21T07:48:28;6.33;;;3.60;;
19798;SDS011;10059;59.850;10.454;2023-05-21T07:50:55;6.83;;;3.70;;
19798;SDS011;10059;59.850;10.454;2023-05-21T07:53:23;7.70;;;3.70;;
19798;SDS011;10059;59.850;10.454;2023-05-21T07:55:49;5.30;;;3.30;;
19798;SDS011;10059;59.850;10.454;2023-05-21T07:58:18;6.90;;;3.63;;
19798;SDS011;10059;59.850;10.454;2023-05-21T08:00:45;6.07;;;3.50;;
19798;SDS011;10059;59.850;10.454;2023-05-21T08:03:13;6.90;;;3.77;;
19798;SDS011;10059;59.850;10.454;2023-05-21T08:05:41;6.60;;;3.40;;
19798;SDS011;10059;59.850;10.454;2023-05-21T08:08:12;8.10;;;3.43;;
19798;SDS011;10059;59.850;10.454;2023-05-21T08:10:39;5.43;;;3.13;;
19798;SDS011;10059;59.850;10.454;2023-05-21T08:13:06;5.93;;;3.47;;
19798;SDS011;10059;59.850;10.454;2023-05-21T08:15:34;7.57;;;3.40;;
19798;SDS011;10059;59.850;10.454;2023-05-21T08:18:01;7.77;;;3.33;;
19798;SDS011;10059;59.850;10.454;2023-05-21T08:20:28;6.17;;;3.40;;
19798;SDS011;10059;59.850;10.454;2023-05-21T08:22:56;6.23;;;3.37;;
19798;SDS011;10059;59.850;10.454;2023-05-21T08:25:24;6.40;;;3.23;;
19798;SDS011;10059;59.850;10.454;2023-05-21T08:27:54;5.83;;;3.30;;
19798;SDS011;10059;59.850;10.454;2023-05-21T08:30:21;5.07;;;3.50;;
19798;SDS011;10059;59.850;10.454;2023-05-21T08:32:50;7.20;;;3.10;;
19798;SDS011;10059;59.850;10.454;2023-05-21T08:35:16;5.80;;;3.20;;
19798;SDS011;10059;59.850;10.454;2023-05-21T08:37:43;5.83;;;3.10;;
19798;SDS011;10059;59.850;10.454;2023-05-21T08:40:11;7.83;;;3.23;;
19798;SDS011;10059;59.850;10.454;2023-05-21T08:42:38;5.53;;;3.23;;
19798;SDS011;10059;59.850;10.454;2023-05-21T08:45:10;7.33;;;2.90;;
19798;SDS011;10059;59.850;10.454;2023-05-21T08:47:39;5.87;;;2.90;;
19798;SDS011;10059;59.850;10.454;2023-05-21T08:50:10;4.87;;;2.70;;
19798;SDS011;10059;59.850;10.454;2023-05-21T08:52:38;4.17;;;2.80;;
19798;SDS011;10059;59.850;10.454;2023-05-21T08:55:05;4.40;;;2.90;;
19798;SDS011;10059;59.850;10.454;2023-05-21T08:57:33;5.60;;;2.90;;
19798;SDS011;10059;59.850;10.454;2023-05-21T09:00:02;5.70;;;3.00;;
19798;SDS011;10059;59.850;10.454;2023-05-21T09:02:31;5.63;;;3.10;;
19798;SDS011;10059;59.850;10.454;2023-05-21T09:04:59;4.80;;;2.97;;
19798;SDS011;10059;59.850;10.454;2023-05-21T09:07:29;7.30;;;2.90;;
19798;SDS011;10059;59.850;10.454;2023-05-21T09:10:02;4.77;;;2.97;;
19798;SDS011;10059;59.850;10.454;2023-05-21T09:12:32;4.83;;;3.20;;
19798;SDS011;10059;59.850;10.454;2023-05-21T09:15:00;4.60;;;3.10;;
19798;SDS011;10059;59.850;10.454;2023-05-21T09:17:28;6.63;;;3.27;;
19798;SDS011;10059;59.850;10.454;2023-05-21T09:20:07;4.67;;;2.80;;
19798;SDS011;10059;59.850;10.454;2023-05-21T09:22:40;7.47;;;2.80;;
19798;SDS011;10059;59.850;10.454;2023-05-21T09:25:08;7.03;;;3.10;;
19798;SDS011;10059;59.850;10.454;2023-05-21T09:27:35;6.47;;;2.93;;
19798;SDS011;10059;59.850;10.454;2023-05-21T09:30:03;5.83;;;2.87;;
19798;SDS011;10059;59.850;10.454;2023-05-21T09:32:33;4.47;;;2.97;;
19798;SDS011;10059;59.850;10.454;2023-05-21T09:35:04;4.00;;;2.80;;
19798;SDS011;10059;59.850;10.454;2023-05-21T09:37:35;4.80;;;2.73;;
19798;SDS011;10059;59.850;10.454;2023-05-21T09:40:10;8.63;;;2.90;;
19798;SDS011;10059;59.850;10.454;2023-05-21T09:42:38;5.73;;;2.80;;
19798;SDS011;10059;59.850;10.454;2023-05-21T09:45:05;4.33;;;2.80;;
19798;SDS011;10059;59.850;10.454;2023-05-21T09:47:34;5.40;;;2.77;;
19798;SDS011;10059;59.850;10.454;2023-05-21T09:50:07;10.47;;;3.30;;
19798;SDS011;10059;59.850;10.454;2023-05-21T09:52:34;4.50;;;2.70;;
19798;SDS011;10059;59.850;10.454;2023-05-21T09:55:02;6.60;;;3.03;;
19798;SDS011;10059;59.850;10.454;2023-05-21T09:57:31;5.60;;;2.70;;
19798;SDS011;10059;59.850;10.454;2023-05-21T10:00:06;8.33;;;2.83;;
19798;SDS011;10059;59.850;10.454;2023-05-21T10:02:34;4.57;;;2.90;;
19798;SDS011;10059;59.850;10.454;2023-05-21T10:05:04;4.17;;;2.93;;
19798;SDS011;10059;59.850;10.454;2023-05-21T10:07:35;5.10;;;3.00;;
19798;SDS011;10059;59.850;10.454;2023-05-21T10:10:04;4.27;;;3.30;;
19798;SDS011;10059;59.850;10.454;2023-05-21T10:12:33;4.67;;;3.00;;
19798;SDS011;10059;59.850;10.454;2023-05-21T10:15:02;4.23;;;2.70;;
19798;SDS011;10059;59.850;10.454;2023-05-21T10:17:29;5.33;;;3.13;;
19798;SDS011;10059;59.850;10.454;2023-05-21T10:19:56;7.37;;;3.27;;
19798;SDS011;10059;59.850;10.454;2023-05-21T10:22:25;7.50;;;2.90;;
19798;SDS011;10059;59.850;10.454;2023-05-21T10:24:52;7.20;;;3.07;;
19798;SDS011;10059;59.850;10.454;2023-05-21T10:27:19;6.93;;;2.97;;
19798;SDS011;10059;59.850;10.454;2023-05-21T10:29:49;7.27;;;2.90;;
19798;SDS011;10059;59.850;10.454;2023-05-21T10:32:19;8.20;;;3.30;;
19798;SDS011;10059;59.850;10.454;2023-05-21T10:34:47;5.30;;;3.07;;
19798;SDS011;10059;59.850;10.454;2023-05-21T10:37:17;5.93;;;2.90;;
19798;SDS011;10059;59.850;10.454;2023-05-21T10:39:45;5.63;;;3.00;;
19798;SDS011;10059;59.850;10.454;2023-05-21T10:42:16;5.17;;;3.10;;
19798;SDS011;10059;59.850;10.454;2023-05-21T10:44:54;5.50;;;3.77;;
19798;SDS011;10059;59.850;10.454;2023-05-21T10:47:42;7.33;;;3.60;;
19798;SDS011;10059;59.850;10.454;2023-05-21T10:50:29;4.10;;;2.80;;
19798;SDS011;10059;59.850;10.454;2023-05-21T10:53:11;5.50;;;2.90;;
19798;SDS011;10059;59.850;10.454;2023-05-21T10:55:47;5.37;;;2.87;;
19798;SDS011;10059;59.850;10.454;2023-05-21T10:58:44;5.30;;;2.90;;
19798;SDS011;10059;59.850;10.454;2023-05-21T11:01:32;4.53;;;3.00;;
19798;SDS011;10059;59.850;10.454;2023-05-21T11:04:02;7.10;;;3.30;;
19798;SDS011;10059;59.850;10.454;2023-05-21T11:06:30;5.67;;;2.97;;
19798;SDS011;10059;59.850;10.454;2023-05-21T11:08:59;6.13;;;3.00;;
19798;SDS011;10059;59.850;10.454;2023-05-21T11:11:40;4.50;;;3.00;;
19798;SDS011;10059;59.850;10.454;2023-05-21T11:14:24;4.60;;;2.83;;
19798;SDS011;10059;59.850;10.454;2023-05-21T11:16:58;5.67;;;2.93;;
19798;SDS011;10059;59.850;10.454;2023-05-21T11:19:35;3.77;;;2.80;;
19798;SDS011;10059;59.850;10.454;2023-05-21T11:22:09;7.23;;;2.90;;
19798;SDS011;10059;59.850;10.454;2023-05-21T11:24:46;3.87;;;2.60;;
19798;SDS011;10059;59.850;10.454;2023-05-21T11:27:18;4.80;;;2.90;;
19798;SDS011;10059;59.850;10.454;2023-05-21T11:29:57;5.60;;;2.87;;
19798;SDS011;10059;59.850;10.454;2023-05-21T11:32:26;4.20;;;2.90;;
19798;SDS011;10059;59.850;10.454;2023-05-21T11:34:54;5.93;;;3.17;;
19798;SDS011;10059;59.850;10.454;2023-05-21T11:37:26;4.17;;;3.00;;
19798;SDS011;10059;59.850;10.454;2023-05-21T11:39:54;3.10;;;2.80;;
19798;SDS011;10059;59.850;10.454;2023-05-21T11:42:37;6.50;;;3.03;;
19798;SDS011;10059;59.850;10.454;2023-05-21T11:45:06;6.10;;;2.90;;
19798;SDS011;10059;59.850;10.454;2023-05-21T11:47:35;5.13;;;3.07;;
19798;SDS011;10059;59.850;10.454;2023-05-21T11:50:03;5.53;;;2.40;;
19798;SDS011;10059;59.850;10.454;2023-05-21T11:52:31;4.80;;;2.50;;
19798;SDS011;10059;59.850;10.454;2023-05-21T11:54:57;4.37;;;2.67;;
19798;SDS011;10059;59.850;10.454;2023-05-21T11:57:25;4.63;;;2.70;;
19798;SDS011;10059;59.850;10.454;2023-05-21T11:59:55;4.60;;;3.00;;
19798;SDS011;10059;59.850;10.454;2023-05-21T12:02:24;4.00;;;2.30;;
19798;SDS011;10059;59.850;10.454;2023-05-21T12:04:53;7.63;;;3.00;;
19798;SDS011;10059;59.850;10.454;2023-05-21T12:07:24;4.60;;;2.50;;
19798;SDS011;10059;59.850;10.454;2023-05-21T12:09:53;6.13;;;2.70;;
19798;SDS011;10059;59.850;10.454;2023-05-21T12:12:21;4.87;;;3.00;;
19798;SDS011;10059;59.850;10.454;2023-05-21T12:14:49;5.03;;;2.40;;
19798;SDS011;10059;59.850;10.454;2023-05-21T12:17:18;5.60;;;2.40;;
19798;SDS011;10059;59.850;10.454;2023-05-21T12:19:46;5.87;;;2.40;;
19798;SDS011;10059;59.850;10.454;2023-05-21T12:22:15;3.77;;;2.40;;
19798;SDS011;10059;59.850;10.454;2023-05-21T12:24:42;4.80;;;2.70;;
19798;SDS011;10059;59.850;10.454;2023-05-21T12:27:09;6.47;;;2.50;;
19798;SDS011;10059;59.850;10.454;2023-05-21T12:29:41;4.63;;;2.90;;
19798;SDS011;10059;59.850;10.454;2023-05-21T12:32:09;6.23;;;2.80;;
19798;SDS011;10059;59.850;10.454;2023-05-21T12:34:40;3.87;;;2.67;;
19798;SDS011;10059;59.850;10.454;2023-05-21T12:37:10;3.97;;;2.60;;
19798;SDS011;10059;59.850;10.454;2023-05-21T12:39:39;6.67;;;3.00;;
19798;SDS011;10059;59.850;10.454;2023-05-21T12:42:08;5.27;;;2.50;;
19798;SDS011;10059;59.850;10.454;2023-05-21T12:44:37;5.33;;;2.90;;
19798;SDS011;10059;59.850;10.454;2023-05-21T12:47:04;4.33;;;2.60;;
19798;SDS011;10059;59.850;10.454;2023-05-21T12:49:34;5.93;;;2.90;;
19798;SDS011;10059;59.850;10.454;2023-05-21T12:52:03;4.80;;;2.90;;
19798;SDS011;10059;59.850;10.454;2023-05-21T12:54:33;4.50;;;2.83;;
19798;SDS011;10059;59.850;10.454;2023-05-21T12:57:06;4.23;;;2.53;;
19798;SDS011;10059;59.850;10.454;2023-05-21T12:59:44;6.63;;;2.90;;
19798;SDS011;10059;59.850;10.454;2023-05-21T13:02:13;4.47;;;2.80;;
19798;SDS011;10059;59.850;10.454;2023-05-21T13:04:41;8.50;;;2.97;;
19798;SDS011;10059;59.850;10.454;2023-05-21T13:07:08;6.87;;;2.63;;
19798;SDS011;10059;59.850;10.454;2023-05-21T13:09:35;4.80;;;2.60;;
19798;SDS011;10059;59.850;10.454;2023-05-21T13:12:02;4.43;;;2.77;;
19798;SDS011;10059;59.850;10.454;2023-05-21T13:14:30;5.13;;;2.60;;
19798;SDS011;10059;59.850;10.454;2023-05-21T13:16:57;5.03;;;2.67;;
19798;SDS011;10059;59.850;10.454;2023-05-21T13:19:24;4.60;;;2.80;;
19798;SDS011;10059;59.850;10.454;2023-05-21T13:21:51;4.90;;;2.40;;
19798;SDS011;10059;59.850;10.454;2023-05-21T13:24:18;3.83;;;2.47;;
19798;SDS011;10059;59.850;10.454;2023-05-21T13:26:45;3.37;;;2.50;;
19798;SDS011;10059;59.850;10.454;2023-05-21T13:29:12;4.27;;;2.50;;
19798;SDS011;10059;59.850;10.454;2023-05-21T13:31:41;4.20;;;2.67;;
19798;SDS011;10059;59.850;10.454;2023-05-21T13:34:08;3.50;;;2.47;;
19798;SDS011;10059;59.850;10.454;2023-05-21T13:36:35;6.03;;;2.47;;
19798;SDS011;10059;59.850;10.454;2023-05-21T13:39:02;6.30;;;2.90;;
19798;SDS011;10059;59.850;10.454;2023-05-21T13:41:29;4.47;;;2.57;;
19798;SDS011;10059;59.850;10.454;2023-05-21T13:43:57;6.03;;;2.87;;
19798;SDS011;10059;59.850;10.454;2023-05-21T13:46:24;3.80;;;2.60;;
19798;SDS011;10059;59.850;10.454;2023-05-21T13:48:53;3.30;;;2.40;;
19798;SDS011;10059;59.850;10.454;2023-05-21T13:51:20;4.83;;;2.37;;
19798;SDS011;10059;59.850;10.454;2023-05-21T13:53:47;4.87;;;2.47;;
19798;SDS011;10059;59.850;10.454;2023-05-21T13:56:13;5.23;;;2.67;;
19798;SDS011;10059;59.850;10.454;2023-05-21T13:58:40;3.80;;;2.50;;
19798;SDS011;10059;59.850;10.454;2023-05-21T14:01:07;4.30;;;2.60;;
19798;SDS011;10059;59.850;10.454;2023-05-21T14:03:34;5.33;;;2.47;;
19798;SDS011;10059;59.850;10.454;2023-05-21T14:06:02;8.30;;;2.80;;
19798;SDS011;10059;59.850;10.454;2023-05-21T14:08:30;4.53;;;2.60;;
19798;SDS011;10059;59.850;10.454;2023-05-21T14:10:56;3.17;;;2.40;;
19798;SDS011;10059;59.850;10.454;2023-05-21T14:13:23;5.50;;;2.40;;
19798;SDS011;10059;59.850;10.454;2023-05-21T14:15:50;5.67;;;2.43;;
19798;SDS011;10059;59.850;10.454;2023-05-21T14:18:17;5.80;;;2.47;;
19798;SDS011;10059;59.850;10.454;2023-05-21T14:20:44;4.77;;;2.30;;
19798;SDS011;10059;59.850;10.454;2023-05-21T14:23:12;4.17;;;2.60;;
19798;SDS011;10059;59.850;10.454;2023-05-21T14:25:39;4.73;;;2.70;;
19798;SDS011;10059;59.850;10.454;2023-05-21T14:28:06;4.20;;;2.60;;
19798;SDS011;10059;59.850;10.454;2023-05-21T14:30:33;4.60;;;2.60;;
19798;SDS011;10059;59.850;10.454;2023-05-21T14:33:00;5.07;;;2.37;;
19798;SDS011;10059;59.850;10.454;2023-05-21T14:35:27;4.37;;;2.50;;
19798;SDS011;10059;59.850;10.454;2023-05-21T14:37:53;5.73;;;2.50;;
19798;SDS011;10059;59.850;10.454;2023-05-21T14:40:22;4.37;;;2.47;;